sensor_id;sensor_type;location;lat;lon;timestamp;P1;durP1;ratioP1;P2;durP2;ratioP2
11970;SDS011;6045;42.682;23.294;2023-07-13T00:00:08;3.72;;;3.25;;
11970;SDS011;6045;42.682;23.294;2023-07-13T00:02:36;5.65;;;3.53;;
11970;SDS011;6045;42.682;23.294;2023-07-13T00:05:04;4.68;;;3.38;;
11970;SDS011;6045;42.682;23.294;2023-07-13T00:07:31;4.15;;;3.50;;
11970;SDS011;6045;42.682;23.294;2023-07-13T00:09:59;4.47;;;3.25;;
11970;SDS011;6045;42.682;23.294;2023-07-13T00:12:27;3.90;;;3.20;;
11970;SDS011;6045;42.682;23.294;2023-07-13T00:14:56;4.25;;;3.60;;
11970;SDS011;6045;42.682;23.294;2023-07-13T00:17:25;4.55;;;3.40;;
11970;SDS011;6045;42.682;23.294;2023-07-13T00:19:52;3.97;;;3.08;;
11970;SDS011;6045;42.682;23.294;2023-07-13T00:22:20;5.45;;;3.65;;
11970;SDS011;6045;42.682;23.294;2023-07-13T00:24:50;5.05;;;3.65;;
11970;SDS011;6045;42.682;23.294;2023-07-13T00:27:19;6.05;;;3.67;;
11970;SDS011;6045;42.682;23.294;2023-07-13T00:29:45;5.82;;;4.03;;
11970;SDS011;6045;42.682;23.294;2023-07-13T00:32:12;3.83;;;3.42;;
11970;SDS011;6045;42.682;23.294;2023-07-13T00:34:39;4.55;;;3.70;;
11970;SDS011;6045;42.682;23.294;2023-07-13T00:37:07;7.50;;;4.13;;
11970;SDS011;6045;42.682;23.294;2023-07-13T00:39:34;7.43;;;4.35;;
11970;SDS011;6045;42.682;23.294;2023-07-13T00:42:02;4.53;;;3.75;;
11970;SDS011;6045;42.682;23.294;2023-07-13T00:44:30;5.85;;;4.38;;
11970;SDS011;6045;42.682;23.294;2023-07-13T00:46:57;5.25;;;3.83;;
11970;SDS011;6045;42.682;23.294;2023-07-13T00:49:25;7.68;;;4.35;;
11970;SDS011;6045;42.682;23.294;2023-07-13T00:51:55;5.95;;;4.07;;
11970;SDS011;6045;42.682;23.294;2023-07-13T00:54:24;4.57;;;3.88;;
11970;SDS011;6045;42.682;23.294;2023-07-13T00:56:55;5.30;;;3.92;;
11970;SDS011;6045;42.682;23.294;2023-07-13T00:59:24;7.90;;;4.15;;
11970;SDS011;6045;42.682;23.294;2023-07-13T01:01:52;6.50;;;4.13;;
11970;SDS011;6045;42.682;23.294;2023-07-13T01:04:20;5.43;;;3.72;;
11970;SDS011;6045;42.682;23.294;2023-07-13T01:06:49;6.05;;;3.80;;
11970;SDS011;6045;42.682;23.294;2023-07-13T01:09:16;5.97;;;3.78;;
11970;SDS011;6045;42.682;23.294;2023-07-13T01:11:43;6.60;;;4.75;;
11970;SDS011;6045;42.682;23.294;2023-07-13T01:14:10;4.22;;;3.75;;
11970;SDS011;6045;42.682;23.294;2023-07-13T01:16:37;5.10;;;4.20;;
11970;SDS011;6045;42.682;23.294;2023-07-13T01:19:11;6.40;;;4.45;;
11970;SDS011;6045;42.682;23.294;2023-07-13T01:21:51;4.13;;;3.45;;
11970;SDS011;6045;42.682;23.294;2023-07-13T01:24:20;4.72;;;3.95;;
11970;SDS011;6045;42.682;23.294;2023-07-13T01:26:47;7.20;;;4.45;;
11970;SDS011;6045;42.682;23.294;2023-07-13T01:29:13;5.70;;;4.07;;
11970;SDS011;6045;42.682;23.294;2023-07-13T01:31:40;6.55;;;4.57;;
11970;SDS011;6045;42.682;23.294;2023-07-13T01:34:09;5.22;;;3.80;;
11970;SDS011;6045;42.682;23.294;2023-07-13T01:36:35;5.22;;;3.50;;
11970;SDS011;6045;42.682;23.294;2023-07-13T01:39:04;4.32;;;3.90;;
11970;SDS011;6045;42.682;23.294;2023-07-13T01:41:31;4.57;;;3.47;;
11970;SDS011;6045;42.682;23.294;2023-07-13T01:43:57;5.82;;;4.53;;
11970;SDS011;6045;42.682;23.294;2023-07-13T01:46:24;7.07;;;3.47;;
11970;SDS011;6045;42.682;23.294;2023-07-13T01:48:51;5.65;;;4.25;;
11970;SDS011;6045;42.682;23.294;2023-07-13T01:51:18;5.32;;;3.65;;
11970;SDS011;6045;42.682;23.294;2023-07-13T01:53:45;6.38;;;4.45;;
11970;SDS011;6045;42.682;23.294;2023-07-13T01:56:13;4.95;;;3.90;;
11970;SDS011;6045;42.682;23.294;2023-07-13T01:58:40;6.55;;;4.10;;
11970;SDS011;6045;42.682;23.294;2023-07-13T02:01:07;7.28;;;4.40;;
11970;SDS011;6045;42.682;23.294;2023-07-13T02:03:33;5.80;;;3.90;;
11970;SDS011;6045;42.682;23.294;2023-07-13T02:06:00;5.47;;;3.70;;
11970;SDS011;6045;42.682;23.294;2023-07-13T02:08:28;4.25;;;3.85;;
11970;SDS011;6045;42.682;23.294;2023-07-13T02:10:55;5.00;;;4.13;;
11970;SDS011;6045;42.682;23.294;2023-07-13T02:13:23;5.15;;;3.65;;
11970;SDS011;6045;42.682;23.294;2023-07-13T02:15:51;5.22;;;4.22;;
11970;SDS011;6045;42.682;23.294;2023-07-13T02:18:18;6.35;;;4.22;;
11970;SDS011;6045;42.682;23.294;2023-07-13T02:20:45;5.88;;;4.15;;
11970;SDS011;6045;42.682;23.294;2023-07-13T02:23:11;5.13;;;3.72;;
11970;SDS011;6045;42.682;23.294;2023-07-13T02:25:38;4.93;;;4.20;;
11970;SDS011;6045;42.682;23.294;2023-07-13T02:28:06;4.50;;;4.03;;
11970;SDS011;6045;42.682;23.294;2023-07-13T02:30:34;5.15;;;4.18;;
11970;SDS011;6045;42.682;23.294;2023-07-13T02:33:01;5.32;;;4.00;;
11970;SDS011;6045;42.682;23.294;2023-07-13T02:35:28;4.93;;;3.92;;
11970;SDS011;6045;42.682;23.294;2023-07-13T02:37:55;6.03;;;4.70;;
11970;SDS011;6045;42.682;23.294;2023-07-13T02:40:22;6.70;;;4.35;;
11970;SDS011;6045;42.682;23.294;2023-07-13T02:42:49;5.13;;;3.65;;
11970;SDS011;6045;42.682;23.294;2023-07-13T02:45:16;5.28;;;4.10;;
11970;SDS011;6045;42.682;23.294;2023-07-13T02:47:44;4.28;;;3.88;;
11970;SDS011;6045;42.682;23.294;2023-07-13T02:50:11;4.15;;;3.75;;
11970;SDS011;6045;42.682;23.294;2023-07-13T02:52:37;5.75;;;4.38;;
11970;SDS011;6045;42.682;23.294;2023-07-13T02:55:06;7.47;;;4.20;;
11970;SDS011;6045;42.682;23.294;2023-07-13T02:57:34;6.80;;;4.28;;
11970;SDS011;6045;42.682;23.294;2023-07-13T03:00:00;4.75;;;3.63;;
11970;SDS011;6045;42.682;23.294;2023-07-13T03:02:30;5.57;;;4.00;;
11970;SDS011;6045;42.682;23.294;2023-07-13T03:04:58;5.82;;;4.28;;
11970;SDS011;6045;42.682;23.294;2023-07-13T03:07:25;5.18;;;3.95;;
11970;SDS011;6045;42.682;23.294;2023-07-13T03:09:53;6.30;;;4.25;;
11970;SDS011;6045;42.682;23.294;2023-07-13T03:12:20;6.13;;;4.05;;
11970;SDS011;6045;42.682;23.294;2023-07-13T03:14:47;5.65;;;4.72;;
11970;SDS011;6045;42.682;23.294;2023-07-13T03:17:14;5.43;;;4.18;;
11970;SDS011;6045;42.682;23.294;2023-07-13T03:19:40;6.82;;;4.57;;
11970;SDS011;6045;42.682;23.294;2023-07-13T03:22:08;6.53;;;4.30;;
11970;SDS011;6045;42.682;23.294;2023-07-13T03:24:35;6.05;;;4.00;;
11970;SDS011;6045;42.682;23.294;2023-07-13T03:27:03;6.50;;;4.22;;
11970;SDS011;6045;42.682;23.294;2023-07-13T03:29:31;6.53;;;4.47;;
11970;SDS011;6045;42.682;23.294;2023-07-13T03:31:58;6.18;;;4.55;;
11970;SDS011;6045;42.682;23.294;2023-07-13T03:34:24;9.65;;;5.38;;
11970;SDS011;6045;42.682;23.294;2023-07-13T03:36:53;5.95;;;4.40;;
11970;SDS011;6045;42.682;23.294;2023-07-13T03:39:22;5.75;;;4.80;;
11970;SDS011;6045;42.682;23.294;2023-07-13T03:41:49;5.93;;;4.45;;
11970;SDS011;6045;42.682;23.294;2023-07-13T03:44:16;7.20;;;4.25;;
11970;SDS011;6045;42.682;23.294;2023-07-13T03:46:43;7.03;;;4.97;;
11970;SDS011;6045;42.682;23.294;2023-07-13T03:49:10;9.82;;;5.00;;
11970;SDS011;6045;42.682;23.294;2023-07-13T03:51:37;6.82;;;4.85;;
11970;SDS011;6045;42.682;23.294;2023-07-13T03:54:04;7.72;;;4.63;;
11970;SDS011;6045;42.682;23.294;2023-07-13T03:56:33;7.30;;;4.55;;
11970;SDS011;6045;42.682;23.294;2023-07-13T03:59:00;5.35;;;4.50;;
11970;SDS011;6045;42.682;23.294;2023-07-13T04:01:27;6.85;;;4.70;;
11970;SDS011;6045;42.682;23.294;2023-07-13T04:03:54;6.47;;;4.45;;
11970;SDS011;6045;42.682;23.294;2023-07-13T04:06:21;6.95;;;4.75;;
11970;SDS011;6045;42.682;23.294;2023-07-13T04:08:50;5.40;;;4.65;;
11970;SDS011;6045;42.682;23.294;2023-07-13T04:11:18;5.43;;;4.82;;
11970;SDS011;6045;42.682;23.294;2023-07-13T04:13:47;5.95;;;4.80;;
11970;SDS011;6045;42.682;23.294;2023-07-13T04:16:15;6.80;;;4.78;;
11970;SDS011;6045;42.682;23.294;2023-07-13T04:18:43;8.32;;;4.88;;
11970;SDS011;6045;42.682;23.294;2023-07-13T04:21:11;7.47;;;4.85;;
11970;SDS011;6045;42.682;23.294;2023-07-13T04:23:38;7.35;;;5.13;;
11970;SDS011;6045;42.682;23.294;2023-07-13T04:26:05;6.97;;;5.00;;
11970;SDS011;6045;42.682;23.294;2023-07-13T04:28:33;7.03;;;5.13;;
11970;SDS011;6045;42.682;23.294;2023-07-13T04:31:02;9.38;;;5.47;;
11970;SDS011;6045;42.682;23.294;2023-07-13T04:33:29;6.18;;;4.78;;
11970;SDS011;6045;42.682;23.294;2023-07-13T04:35:56;5.50;;;4.78;;
11970;SDS011;6045;42.682;23.294;2023-07-13T04:38:24;6.93;;;5.20;;
11970;SDS011;6045;42.682;23.294;2023-07-13T04:40:54;7.70;;;5.00;;
11970;SDS011;6045;42.682;23.294;2023-07-13T04:43:21;7.88;;;5.57;;
11970;SDS011;6045;42.682;23.294;2023-07-13T04:45:49;8.15;;;5.45;;
11970;SDS011;6045;42.682;23.294;2023-07-13T04:48:17;6.25;;;5.00;;
11970;SDS011;6045;42.682;23.294;2023-07-13T04:50:45;6.70;;;5.68;;
11970;SDS011;6045;42.682;23.294;2023-07-13T04:53:12;9.68;;;6.32;;
11970;SDS011;6045;42.682;23.294;2023-07-13T04:55:39;6.97;;;5.15;;
11970;SDS011;6045;42.682;23.294;2023-07-13T04:58:06;6.75;;;5.35;;
11970;SDS011;6045;42.682;23.294;2023-07-13T05:00:33;6.43;;;5.35;;
11970;SDS011;6045;42.682;23.294;2023-07-13T05:02:59;6.68;;;5.07;;
11970;SDS011;6045;42.682;23.294;2023-07-13T05:05:28;6.85;;;5.57;;
11970;SDS011;6045;42.682;23.294;2023-07-13T05:07:54;7.50;;;5.97;;
11970;SDS011;6045;42.682;23.294;2023-07-13T05:10:21;7.22;;;5.65;;
11970;SDS011;6045;42.682;23.294;2023-07-13T05:12:48;8.38;;;5.68;;
11970;SDS011;6045;42.682;23.294;2023-07-13T05:15:16;9.75;;;5.90;;
11970;SDS011;6045;42.682;23.294;2023-07-13T05:17:46;7.15;;;5.53;;
11970;SDS011;6045;42.682;23.294;2023-07-13T05:20:12;7.35;;;5.90;;
11970;SDS011;6045;42.682;23.294;2023-07-13T05:22:41;6.90;;;5.38;;
11970;SDS011;6045;42.682;23.294;2023-07-13T05:25:08;7.40;;;6.00;;
11970;SDS011;6045;42.682;23.294;2023-07-13T05:27:35;7.78;;;6.22;;
11970;SDS011;6045;42.682;23.294;2023-07-13T05:30:03;10.88;;;6.00;;
11970;SDS011;6045;42.682;23.294;2023-07-13T05:32:30;8.82;;;6.47;;
11970;SDS011;6045;42.682;23.294;2023-07-13T05:34:57;9.00;;;7.22;;
11970;SDS011;6045;42.682;23.294;2023-07-13T05:37:24;8.23;;;6.00;;
11970;SDS011;6045;42.682;23.294;2023-07-13T05:39:52;6.05;;;5.43;;
11970;SDS011;6045;42.682;23.294;2023-07-13T05:42:19;9.55;;;6.00;;
11970;SDS011;6045;42.682;23.294;2023-07-13T05:44:45;7.93;;;5.47;;
11970;SDS011;6045;42.682;23.294;2023-07-13T05:47:12;7.25;;;5.78;;
11970;SDS011;6045;42.682;23.294;2023-07-13T05:49:40;8.10;;;6.32;;
11970;SDS011;6045;42.682;23.294;2023-07-13T05:52:07;8.10;;;6.57;;
11970;SDS011;6045;42.682;23.294;2023-07-13T05:54:34;8.35;;;6.32;;
11970;SDS011;6045;42.682;23.294;2023-07-13T05:57:02;6.28;;;5.53;;
11970;SDS011;6045;42.682;23.294;2023-07-13T05:59:29;8.15;;;6.45;;
11970;SDS011;6045;42.682;23.294;2023-07-13T06:01:55;8.95;;;6.85;;
11970;SDS011;6045;42.682;23.294;2023-07-13T06:04:22;7.38;;;6.63;;
11970;SDS011;6045;42.682;23.294;2023-07-13T06:06:49;8.15;;;6.63;;
11970;SDS011;6045;42.682;23.294;2023-07-13T06:09:15;9.85;;;6.63;;
11970;SDS011;6045;42.682;23.294;2023-07-13T06:11:42;8.20;;;6.10;;
11970;SDS011;6045;42.682;23.294;2023-07-13T06:14:11;6.75;;;6.03;;
11970;SDS011;6045;42.682;23.294;2023-07-13T06:16:39;7.45;;;5.65;;
11970;SDS011;6045;42.682;23.294;2023-07-13T06:19:06;10.68;;;6.85;;
11970;SDS011;6045;42.682;23.294;2023-07-13T06:21:33;9.60;;;6.85;;
11970;SDS011;6045;42.682;23.294;2023-07-13T06:23:59;10.32;;;6.45;;
11970;SDS011;6045;42.682;23.294;2023-07-13T06:26:26;8.18;;;5.85;;
11970;SDS011;6045;42.682;23.294;2023-07-13T06:28:53;10.23;;;7.05;;
11970;SDS011;6045;42.682;23.294;2023-07-13T06:31:21;7.40;;;6.40;;
11970;SDS011;6045;42.682;23.294;2023-07-13T06:33:48;8.73;;;7.50;;
11970;SDS011;6045;42.682;23.294;2023-07-13T06:36:14;10.75;;;7.55;;
11970;SDS011;6045;42.682;23.294;2023-07-13T06:38:41;8.38;;;6.43;;
11970;SDS011;6045;42.682;23.294;2023-07-13T06:41:08;9.23;;;6.60;;
11970;SDS011;6045;42.682;23.294;2023-07-13T06:43:35;10.63;;;6.15;;
11970;SDS011;6045;42.682;23.294;2023-07-13T06:46:01;8.45;;;7.10;;
11970;SDS011;6045;42.682;23.294;2023-07-13T06:48:30;8.02;;;5.97;;
11970;SDS011;6045;42.682;23.294;2023-07-13T06:50:56;7.93;;;6.13;;
11970;SDS011;6045;42.682;23.294;2023-07-13T06:53:26;7.10;;;5.50;;
11970;SDS011;6045;42.682;23.294;2023-07-13T06:55:53;8.45;;;6.32;;
11970;SDS011;6045;42.682;23.294;2023-07-13T06:58:19;9.27;;;6.03;;
11970;SDS011;6045;42.682;23.294;2023-07-13T07:00:49;6.78;;;5.97;;
11970;SDS011;6045;42.682;23.294;2023-07-13T07:03:16;7.38;;;5.43;;
11970;SDS011;6045;42.682;23.294;2023-07-13T07:05:44;10.48;;;5.93;;
11970;SDS011;6045;42.682;23.294;2023-07-13T07:08:11;9.70;;;5.78;;
11970;SDS011;6045;42.682;23.294;2023-07-13T07:10:38;7.10;;;6.03;;
11970;SDS011;6045;42.682;23.294;2023-07-13T07:13:05;8.25;;;6.95;;
11970;SDS011;6045;42.682;23.294;2023-07-13T07:15:31;8.70;;;6.53;;
11970;SDS011;6045;42.682;23.294;2023-07-13T07:17:58;7.35;;;6.43;;
11970;SDS011;6045;42.682;23.294;2023-07-13T07:20:25;8.73;;;6.10;;
11970;SDS011;6045;42.682;23.294;2023-07-13T07:22:53;9.27;;;6.55;;
11970;SDS011;6045;42.682;23.294;2023-07-13T07:25:19;7.55;;;6.53;;
11970;SDS011;6045;42.682;23.294;2023-07-13T07:27:46;9.43;;;6.20;;
11970;SDS011;6045;42.682;23.294;2023-07-13T07:30:13;9.20;;;6.60;;
11970;SDS011;6045;42.682;23.294;2023-07-13T07:32:40;7.30;;;6.18;;
11970;SDS011;6045;42.682;23.294;2023-07-13T07:35:07;25.88;;;19.30;;
11970;SDS011;6045;42.682;23.294;2023-07-13T07:37:34;11.15;;;8.43;;
11970;SDS011;6045;42.682;23.294;2023-07-13T07:40:03;9.38;;;6.38;;
11970;SDS011;6045;42.682;23.294;2023-07-13T07:42:30;7.05;;;5.78;;
11970;SDS011;6045;42.682;23.294;2023-07-13T07:44:56;6.13;;;5.47;;
11970;SDS011;6045;42.682;23.294;2023-07-13T07:47:23;5.93;;;5.32;;
11970;SDS011;6045;42.682;23.294;2023-07-13T07:49:50;8.40;;;5.50;;
11970;SDS011;6045;42.682;23.294;2023-07-13T07:52:17;10.90;;;8.07;;
11970;SDS011;6045;42.682;23.294;2023-07-13T07:54:44;8.23;;;7.35;;
11970;SDS011;6045;42.682;23.294;2023-07-13T07:57:12;7.95;;;5.97;;
11970;SDS011;6045;42.682;23.294;2023-07-13T07:59:39;6.10;;;5.32;;
11970;SDS011;6045;42.682;23.294;2023-07-13T08:02:06;7.63;;;5.78;;
11970;SDS011;6045;42.682;23.294;2023-07-13T08:04:34;8.90;;;6.10;;
11970;SDS011;6045;42.682;23.294;2023-07-13T08:07:01;6.15;;;5.15;;
11970;SDS011;6045;42.682;23.294;2023-07-13T08:09:28;6.35;;;5.75;;
11970;SDS011;6045;42.682;23.294;2023-07-13T08:11:55;6.18;;;5.57;;
11970;SDS011;6045;42.682;23.294;2023-07-13T08:14:26;6.75;;;5.00;;
11970;SDS011;6045;42.682;23.294;2023-07-13T08:16:52;5.95;;;5.35;;
11970;SDS011;6045;42.682;23.294;2023-07-13T08:19:19;6.97;;;5.18;;
11970;SDS011;6045;42.682;23.294;2023-07-13T08:21:46;7.05;;;5.68;;
11970;SDS011;6045;42.682;23.294;2023-07-13T08:24:14;6.10;;;5.07;;
11970;SDS011;6045;42.682;23.294;2023-07-13T08:26:43;6.45;;;5.63;;
11970;SDS011;6045;42.682;23.294;2023-07-13T08:29:10;5.50;;;4.85;;
11970;SDS011;6045;42.682;23.294;2023-07-13T08:31:38;6.03;;;5.43;;
11970;SDS011;6045;42.682;23.294;2023-07-13T08:34:05;7.35;;;5.07;;
11970;SDS011;6045;42.682;23.294;2023-07-13T08:36:32;6.68;;;5.57;;
11970;SDS011;6045;42.682;23.294;2023-07-13T08:38:58;6.03;;;5.43;;
11970;SDS011;6045;42.682;23.294;2023-07-13T08:41:25;6.80;;;5.20;;
11970;SDS011;6045;42.682;23.294;2023-07-13T08:43:55;6.05;;;5.53;;
11970;SDS011;6045;42.682;23.294;2023-07-13T08:46:25;5.78;;;5.20;;
11970;SDS011;6045;42.682;23.294;2023-07-13T08:48:57;6.60;;;5.57;;
11970;SDS011;6045;42.682;23.294;2023-07-13T08:54:19;5.90;;;5.05;;
11970;SDS011;6045;42.682;23.294;2023-07-13T08:56:48;8.88;;;5.90;;
11970;SDS011;6045;42.682;23.294;2023-07-13T08:59:20;5.63;;;4.72;;
11970;SDS011;6045;42.682;23.294;2023-07-13T09:01:56;6.28;;;4.80;;
11970;SDS011;6045;42.682;23.294;2023-07-13T09:04:34;7.10;;;5.63;;
11970;SDS011;6045;42.682;23.294;2023-07-13T09:07:05;6.18;;;5.30;;
11970;SDS011;6045;42.682;23.294;2023-07-13T09:09:44;6.72;;;4.78;;
11970;SDS011;6045;42.682;23.294;2023-07-13T09:12:23;6.57;;;5.10;;
11970;SDS011;6045;42.682;23.294;2023-07-13T09:14:58;6.85;;;5.15;;
11970;SDS011;6045;42.682;23.294;2023-07-13T09:17:31;7.32;;;5.55;;
11970;SDS011;6045;42.682;23.294;2023-07-13T09:20:04;7.18;;;6.15;;
11970;SDS011;6045;42.682;23.294;2023-07-13T09:22:43;7.30;;;5.28;;
11970;SDS011;6045;42.682;23.294;2023-07-13T09:25:13;6.50;;;5.85;;
11970;SDS011;6045;42.682;23.294;2023-07-13T09:27:49;6.05;;;5.45;;
11970;SDS011;6045;42.682;23.294;2023-07-13T09:30:23;6.10;;;5.50;;
11970;SDS011;6045;42.682;23.294;2023-07-13T09:32:55;9.57;;;6.18;;
11970;SDS011;6045;42.682;23.294;2023-07-13T09:35:26;6.70;;;5.28;;
11970;SDS011;6045;42.682;23.294;2023-07-13T09:37:57;5.72;;;4.82;;
11970;SDS011;6045;42.682;23.294;2023-07-13T09:40:28;10.15;;;6.32;;
11970;SDS011;6045;42.682;23.294;2023-07-13T09:43:02;6.00;;;5.40;;
11970;SDS011;6045;42.682;23.294;2023-07-13T09:45:33;10.02;;;6.28;;
11970;SDS011;6045;42.682;23.294;2023-07-13T09:48:03;9.88;;;6.32;;
11970;SDS011;6045;42.682;23.294;2023-07-13T09:50:33;8.43;;;5.90;;
11970;SDS011;6045;42.682;23.294;2023-07-13T09:53:00;6.55;;;5.57;;
11970;SDS011;6045;42.682;23.294;2023-07-13T09:55:29;7.75;;;5.53;;
11970;SDS011;6045;42.682;23.294;2023-07-13T09:58:02;6.10;;;4.57;;
11970;SDS011;6045;42.682;23.294;2023-07-13T10:00:30;6.90;;;5.72;;
11970;SDS011;6045;42.682;23.294;2023-07-13T10:02:58;5.65;;;4.25;;
11970;SDS011;6045;42.682;23.294;2023-07-13T10:05:38;4.38;;;3.78;;
11970;SDS011;6045;42.682;23.294;2023-07-13T10:08:11;6.93;;;3.67;;
11970;SDS011;6045;42.682;23.294;2023-07-13T10:10:43;3.67;;;3.20;;
11970;SDS011;6045;42.682;23.294;2023-07-13T10:13:20;6.43;;;3.17;;
11970;SDS011;6045;42.682;23.294;2023-07-13T10:15:52;3.67;;;3.10;;
11970;SDS011;6045;42.682;23.294;2023-07-13T10:18:19;5.13;;;3.60;;
11970;SDS011;6045;42.682;23.294;2023-07-13T10:20:49;4.55;;;3.15;;
11970;SDS011;6045;42.682;23.294;2023-07-13T10:23:23;5.22;;;3.17;;
11970;SDS011;6045;42.682;23.294;2023-07-13T10:25:57;4.55;;;2.92;;
11970;SDS011;6045;42.682;23.294;2023-07-13T10:28:27;4.40;;;3.67;;
11970;SDS011;6045;42.682;23.294;2023-07-13T10:30:58;4.72;;;2.88;;
11970;SDS011;6045;42.682;23.294;2023-07-13T10:33:27;4.85;;;3.33;;
11970;SDS011;6045;42.682;23.294;2023-07-13T10:35:57;3.78;;;3.03;;
11970;SDS011;6045;42.682;23.294;2023-07-13T10:38:30;4.85;;;3.13;;
11970;SDS011;6045;42.682;23.294;2023-07-13T10:40:59;3.63;;;3.30;;
11970;SDS011;6045;42.682;23.294;2023-07-13T10:43:31;4.65;;;3.58;;
11970;SDS011;6045;42.682;23.294;2023-07-13T10:46:03;4.38;;;2.90;;
11970;SDS011;6045;42.682;23.294;2023-07-13T10:48:32;4.03;;;3.35;;
11970;SDS011;6045;42.682;23.294;2023-07-13T10:51:01;3.50;;;3.15;;
11970;SDS011;6045;42.682;23.294;2023-07-13T10:53:31;5.90;;;3.15;;
11970;SDS011;6045;42.682;23.294;2023-07-13T10:56:01;3.65;;;3.03;;
11970;SDS011;6045;42.682;23.294;2023-07-13T10:58:34;4.70;;;3.67;;
11970;SDS011;6045;42.682;23.294;2023-07-13T11:01:12;4.32;;;3.53;;
11970;SDS011;6045;42.682;23.294;2023-07-13T11:03:46;4.95;;;3.00;;
11970;SDS011;6045;42.682;23.294;2023-07-13T11:06:18;3.33;;;3.03;;
11970;SDS011;6045;42.682;23.294;2023-07-13T11:11:45;6.03;;;3.35;;
11970;SDS011;6045;42.682;23.294;2023-07-13T11:20:18;6.15;;;3.90;;
11970;SDS011;6045;42.682;23.294;2023-07-13T11:22:50;5.75;;;3.50;;
11970;SDS011;6045;42.682;23.294;2023-07-13T11:25:25;4.22;;;3.20;;
11970;SDS011;6045;42.682;23.294;2023-07-13T11:28:05;4.22;;;3.08;;
11970;SDS011;6045;42.682;23.294;2023-07-13T11:30:44;5.05;;;4.00;;
11970;SDS011;6045;42.682;23.294;2023-07-13T11:33:15;6.55;;;3.60;;
11970;SDS011;6045;42.682;23.294;2023-07-13T11:35:46;5.43;;;3.70;;
11970;SDS011;6045;42.682;23.294;2023-07-13T11:38:19;3.72;;;3.40;;
11970;SDS011;6045;42.682;23.294;2023-07-13T11:40:48;3.72;;;3.33;;
11970;SDS011;6045;42.682;23.294;2023-07-13T11:43:18;5.47;;;3.67;;
11970;SDS011;6045;42.682;23.294;2023-07-13T11:45:44;5.22;;;3.88;;
11970;SDS011;6045;42.682;23.294;2023-07-13T11:48:21;3.40;;;3.03;;
11970;SDS011;6045;42.682;23.294;2023-07-13T11:50:58;5.47;;;3.30;;
11970;SDS011;6045;42.682;23.294;2023-07-13T11:53:29;6.30;;;3.58;;
11970;SDS011;6045;42.682;23.294;2023-07-13T11:56:03;4.65;;;2.95;;
11970;SDS011;6045;42.682;23.294;2023-07-13T11:58:31;4.53;;;3.58;;
11970;SDS011;6045;42.682;23.294;2023-07-13T12:00:59;4.85;;;3.30;;
11970;SDS011;6045;42.682;23.294;2023-07-13T12:03:29;4.75;;;3.28;;
11970;SDS011;6045;42.682;23.294;2023-07-13T12:05:59;3.95;;;3.50;;
11970;SDS011;6045;42.682;23.294;2023-07-13T12:08:27;6.18;;;3.78;;
11970;SDS011;6045;42.682;23.294;2023-07-13T12:11:03;6.82;;;3.33;;
11970;SDS011;6045;42.682;23.294;2023-07-13T12:13:35;4.93;;;3.50;;
11970;SDS011;6045;42.682;23.294;2023-07-13T12:16:10;5.57;;;3.38;;
11970;SDS011;6045;42.682;23.294;2023-07-13T12:18:42;5.68;;;3.72;;
11970;SDS011;6045;42.682;23.294;2023-07-13T12:21:12;6.72;;;3.05;;
11970;SDS011;6045;42.682;23.294;2023-07-13T12:23:42;4.38;;;2.80;;
11970;SDS011;6045;42.682;23.294;2023-07-13T12:26:12;6.05;;;3.05;;
11970;SDS011;6045;42.682;23.294;2023-07-13T12:28:43;4.43;;;3.00;;
11970;SDS011;6045;42.682;23.294;2023-07-13T12:31:24;4.55;;;3.00;;
11970;SDS011;6045;42.682;23.294;2023-07-13T12:33:57;4.93;;;2.88;;
11970;SDS011;6045;42.682;23.294;2023-07-13T12:36:25;4.25;;;3.38;;
11970;SDS011;6045;42.682;23.294;2023-07-13T12:38:54;2.97;;;2.65;;
11970;SDS011;6045;42.682;23.294;2023-07-13T12:41:23;5.53;;;3.22;;
11970;SDS011;6045;42.682;23.294;2023-07-13T12:43:50;6.35;;;3.28;;
11970;SDS011;6045;42.682;23.294;2023-07-13T12:46:23;5.25;;;3.40;;
11970;SDS011;6045;42.682;23.294;2023-07-13T12:48:53;3.90;;;3.25;;
11970;SDS011;6045;42.682;23.294;2023-07-13T12:51:21;6.03;;;3.40;;
11970;SDS011;6045;42.682;23.294;2023-07-13T12:53:49;4.95;;;3.10;;
11970;SDS011;6045;42.682;23.294;2023-07-13T12:56:21;3.85;;;2.75;;
11970;SDS011;6045;42.682;23.294;2023-07-13T12:58:54;4.20;;;2.78;;
11970;SDS011;6045;42.682;23.294;2023-07-13T13:01:25;8.48;;;3.20;;
11970;SDS011;6045;42.682;23.294;2023-07-13T13:03:54;3.78;;;2.83;;
11970;SDS011;6045;42.682;23.294;2023-07-13T13:06:22;3.55;;;3.05;;
11970;SDS011;6045;42.682;23.294;2023-07-13T13:08:51;3.75;;;3.00;;
11970;SDS011;6045;42.682;23.294;2023-07-13T13:11:20;4.20;;;2.80;;
11970;SDS011;6045;42.682;23.294;2023-07-13T13:13:49;3.90;;;3.17;;
11970;SDS011;6045;42.682;23.294;2023-07-13T13:16:19;4.45;;;3.33;;
11970;SDS011;6045;42.682;23.294;2023-07-13T13:18:48;3.55;;;2.78;;
11970;SDS011;6045;42.682;23.294;2023-07-13T13:21:16;4.25;;;2.83;;
11970;SDS011;6045;42.682;23.294;2023-07-13T13:23:43;5.70;;;3.35;;
11970;SDS011;6045;42.682;23.294;2023-07-13T13:26:11;4.45;;;3.08;;
11970;SDS011;6045;42.682;23.294;2023-07-13T13:28:39;5.93;;;2.85;;
11970;SDS011;6045;42.682;23.294;2023-07-13T13:31:08;5.97;;;2.97;;
11970;SDS011;6045;42.682;23.294;2023-07-13T13:33:38;3.13;;;2.80;;
11970;SDS011;6045;42.682;23.294;2023-07-13T13:36:09;3.85;;;2.72;;
11970;SDS011;6045;42.682;23.294;2023-07-13T13:38:40;4.63;;;3.13;;
11970;SDS011;6045;42.682;23.294;2023-07-13T13:41:08;5.38;;;3.10;;
11970;SDS011;6045;42.682;23.294;2023-07-13T13:43:36;5.05;;;2.95;;
11970;SDS011;6045;42.682;23.294;2023-07-13T13:46:05;4.30;;;2.53;;
11970;SDS011;6045;42.682;23.294;2023-07-13T13:48:43;4.35;;;3.08;;
11970;SDS011;6045;42.682;23.294;2023-07-13T13:51:14;4.53;;;3.20;;
11970;SDS011;6045;42.682;23.294;2023-07-13T13:53:42;5.70;;;3.10;;
11970;SDS011;6045;42.682;23.294;2023-07-13T13:56:10;3.53;;;2.78;;
11970;SDS011;6045;42.682;23.294;2023-07-13T13:58:37;4.03;;;3.20;;
11970;SDS011;6045;42.682;23.294;2023-07-13T14:01:04;7.20;;;5.28;;
11970;SDS011;6045;42.682;23.294;2023-07-13T14:03:34;5.72;;;2.97;;
11970;SDS011;6045;42.682;23.294;2023-07-13T14:06:01;6.70;;;3.35;;
11970;SDS011;6045;42.682;23.294;2023-07-13T14:08:28;3.97;;;2.53;;
11970;SDS011;6045;42.682;23.294;2023-07-13T14:10:55;5.35;;;3.10;;
11970;SDS011;6045;42.682;23.294;2023-07-13T14:13:25;6.28;;;3.40;;
11970;SDS011;6045;42.682;23.294;2023-07-13T14:15:54;4.57;;;3.17;;
11970;SDS011;6045;42.682;23.294;2023-07-13T14:18:21;5.40;;;3.30;;
11970;SDS011;6045;42.682;23.294;2023-07-13T14:20:50;6.03;;;2.63;;
11970;SDS011;6045;42.682;23.294;2023-07-13T14:23:17;3.75;;;2.85;;
11970;SDS011;6045;42.682;23.294;2023-07-13T14:25:44;4.45;;;3.13;;
11970;SDS011;6045;42.682;23.294;2023-07-13T14:28:20;6.55;;;3.40;;
11970;SDS011;6045;42.682;23.294;2023-07-13T14:30:50;6.82;;;3.28;;
11970;SDS011;6045;42.682;23.294;2023-07-13T14:33:17;6.28;;;3.45;;
11970;SDS011;6045;42.682;23.294;2023-07-13T14:35:44;4.07;;;3.10;;
11970;SDS011;6045;42.682;23.294;2023-07-13T14:38:13;5.60;;;3.20;;
11970;SDS011;6045;42.682;23.294;2023-07-13T14:40:42;4.75;;;3.20;;
11970;SDS011;6045;42.682;23.294;2023-07-13T14:43:11;5.97;;;3.55;;
11970;SDS011;6045;42.682;23.294;2023-07-13T14:45:40;5.22;;;3.45;;
11970;SDS011;6045;42.682;23.294;2023-07-13T14:48:14;7.20;;;3.60;;
11970;SDS011;6045;42.682;23.294;2023-07-13T14:50:44;8.25;;;3.50;;
11970;SDS011;6045;42.682;23.294;2023-07-13T14:53:12;6.63;;;3.95;;
11970;SDS011;6045;42.682;23.294;2023-07-13T14:55:40;4.35;;;3.45;;
11970;SDS011;6045;42.682;23.294;2023-07-13T14:58:07;6.00;;;3.38;;
11970;SDS011;6045;42.682;23.294;2023-07-13T15:00:35;5.18;;;3.10;;
11970;SDS011;6045;42.682;23.294;2023-07-13T15:03:02;6.22;;;2.97;;
11970;SDS011;6045;42.682;23.294;2023-07-13T15:05:31;3.75;;;3.35;;
11970;SDS011;6045;42.682;23.294;2023-07-13T15:08:02;4.97;;;3.47;;